createdAt,value
2017-08-31T17:57:55.730Z,35.78
2017-08-31T17:58:55.747Z,35.07
2017-08-31T17:59:56.517Z,34.42
2017-08-31T18:00:55.745Z,33.83
2017-08-31T18:01:55.775Z,33.22
2017-08-31T18:02:55.797Z,32.7
2017-08-31T18:03:55.823Z,32.23
2017-08-31T18:04:55.864Z,31.73
2017-08-31T18:05:55.882Z,31.33
2017-08-31T18:06:55.906Z,30.92
2017-08-31T18:07:55.922Z,30.57
2017-08-31T19:49:47.482Z,19.12
2017-08-31T19:55:45.129Z,17.98
2017-08-31T19:56:45.164Z,17.98
2017-08-31T19:57:45.185Z,17.74
2017-08-31T19:58:45.514Z,17.64
2017-08-31T19:59:45.205Z,17.39
2017-08-31T20:00:45.215Z,17.38
2017-08-31T20:01:45.241Z,17.23
2017-08-31T20:02:45.255Z,17.3
2017-08-31T20:03:45.270Z,17.33
2017-08-31T20:04:45.318Z,17.38
2017-08-31T20:05:45.328Z,17.27
2017-08-31T20:06:45.339Z,17.27
2017-08-31T20:07:45.409Z,17.2
2017-08-31T20:08:45.386Z,17.11
2017-08-31T20:09:45.400Z,17.06
2017-08-31T20:10:45.425Z,17.12
2017-08-31T20:11:45.440Z,17.02
2017-08-31T20:12:45.465Z,17.01
2017-08-31T20:13:45.492Z,17.12
2017-08-31T20:14:45.516Z,17.08
2017-08-31T20:15:45.635Z,17.12
2017-08-31T20:16:45.553Z,17.08
2017-08-31T20:17:45.897Z,17.02
2017-08-31T20:18:45.601Z,17.04
2017-08-31T20:19:46.194Z,17.11
2017-08-31T20:20:46.154Z,17.16
2017-08-31T20:21:45.671Z,17.14
2017-08-31T20:22:45.694Z,17.14
2017-08-31T20:23:46.465Z,17.02
2017-08-31T20:24:46.061Z,17.12
2017-08-31T20:25:46.121Z,17.04
2017-08-31T20:26:45.776Z,17.05
2017-08-31T20:27:45.796Z,17.12
2017-08-31T20:28:46.145Z,17.26
2017-08-31T20:29:46.108Z,17.29
2017-08-31T20:30:45.874Z,17.39
2017-08-31T20:31:45.892Z,17.27
2017-08-31T20:32:45.927Z,17.31
2017-08-31T20:33:45.944Z,17.27
2017-08-31T20:34:45.973Z,17.23
2017-08-31T20:35:46.306Z,17.33
2017-08-31T20:36:46.015Z,17.27
2017-08-31T20:37:46.658Z,17.3
2017-08-31T20:38:46.264Z,17.26
2017-08-31T20:39:46.096Z,17.22
2017-08-31T20:40:46.103Z,17.3
2017-08-31T20:41:46.123Z,17.34
2017-08-31T20:42:46.226Z,17.38
2017-08-31T20:43:46.167Z,17.34
2017-08-31T20:44:46.195Z,17.23
2017-08-31T20:45:46.224Z,17.29
2017-08-31T20:46:46.236Z,17.26
2017-08-31T20:47:46.259Z,17.34
2017-08-31T20:48:46.293Z,17.3
2017-08-31T20:49:46.320Z,17.29
2017-08-31T20:50:46.327Z,17.44
2017-08-31T20:51:46.410Z,17.34
2017-08-31T20:52:46.435Z,17.36
2017-08-31T20:53:46.456Z,17.42
2017-08-31T20:54:47.119Z,17.48
2017-08-31T20:55:46.451Z,17.51
2017-08-31T20:56:46.480Z,17.42
2017-08-31T20:57:46.500Z,17.39
2017-08-31T20:58:46.523Z,17.44
2017-08-31T20:59:46.867Z,17.34
2017-08-31T21:00:46.559Z,17.29
2017-08-31T21:01:46.584Z,17.38
2017-08-31T21:02:46.603Z,17.33
2017-08-31T21:03:46.627Z,17.38
2017-08-31T21:04:46.686Z,17.27
2017-08-31T21:05:46.682Z,17.29
2017-08-31T21:06:46.693Z,17.33
2017-08-31T21:07:47.035Z,17.36
2017-08-31T21:08:46.745Z,17.38
2017-08-31T21:09:46.813Z,17.42
2017-08-31T21:10:46.793Z,17.49
2017-08-31T21:11:46.829Z,17.46
2017-08-31T21:12:46.835Z,17.46
2017-08-31T21:13:46.865Z,17.48
2017-08-31T21:14:47.199Z,17.51
2017-08-31T21:15:46.909Z,17.39
2017-08-31T21:16:46.930Z,17.39
2017-08-31T21:17:46.945Z,17.34
2017-08-31T21:18:46.982Z,17.52
2017-08-31T21:19:46.996Z,17.51
2017-08-31T21:20:47.020Z,17.49
2017-08-31T21:21:47.050Z,17.46
2017-08-31T21:22:47.062Z,17.44
2017-08-31T21:23:47.091Z,17.42
2017-08-31T21:24:47.137Z,17.48
2017-08-31T21:25:47.180Z,17.49
2017-08-31T21:26:47.168Z,17.38
2017-08-31T21:27:47.180Z,17.42
2017-08-31T21:28:47.207Z,17.46
2017-08-31T21:29:47.223Z,17.49
2017-08-31T21:30:47.274Z,17.46
2017-08-31T21:31:47.268Z,17.59
2017-08-31T21:32:47.616Z,17.54
2017-08-31T21:33:47.316Z,17.52
2017-08-31T21:34:47.345Z,17.57
2017-08-31T21:35:47.364Z,17.59
2017-08-31T21:36:47.383Z,17.57
2017-08-31T21:37:47.416Z,17.52
2017-08-31T21:38:47.759Z,17.65
2017-08-31T21:39:47.465Z,17.46
2017-08-31T21:40:47.533Z,17.49
2017-08-31T21:41:47.509Z,17.44
2017-08-31T21:42:47.530Z,17.44
2017-08-31T21:43:47.545Z,17.48
2017-08-31T21:44:47.569Z,17.42
2017-08-31T21:45:47.587Z,17.48
2017-08-31T21:46:47.610Z,17.49
2017-08-31T21:47:47.649Z,17.51
2017-08-31T21:48:47.658Z,17.57
2017-08-31T21:49:47.997Z,17.51
2017-08-31T21:50:47.710Z,17.49
2017-08-31T21:51:48.040Z,17.46
2017-08-31T21:52:47.751Z,17.54
2017-08-31T21:53:47.791Z,17.54
2017-08-31T21:54:47.817Z,17.63
2017-08-31T21:55:47.853Z,17.52
2017-08-31T21:56:47.839Z,17.6
2017-08-31T21:57:47.924Z,17.52
2017-08-31T21:58:47.891Z,17.65
2017-08-31T21:59:47.912Z,17.56
2017-08-31T22:00:47.934Z,17.56
2017-08-31T22:01:47.956Z,17.67
2017-08-31T22:02:47.985Z,17.56
2017-08-31T22:03:48.000Z,17.48
2017-08-31T22:04:48.024Z,17.52
2017-08-31T22:05:48.050Z,17.64
2017-08-31T22:06:48.075Z,17.67
2017-08-31T22:07:48.085Z,17.54
2017-08-31T22:08:48.124Z,17.67
2017-08-31T22:09:48.135Z,17.68
2017-08-31T22:10:48.470Z,17.68
2017-08-31T22:11:48.187Z,17.76
2017-08-31T22:12:48.261Z,17.74
2017-08-31T22:13:48.225Z,17.7
2017-08-31T22:14:48.258Z,17.74
2017-08-31T22:15:48.277Z,17.74
2017-08-31T22:16:48.298Z,17.78
2017-08-31T22:17:48.329Z,17.68
2017-08-31T22:18:48.656Z,17.71
2017-08-31T22:19:48.372Z,17.67
2017-08-31T22:20:48.391Z,17.67
2017-08-31T22:21:48.411Z,17.67
2017-08-31T22:22:48.432Z,17.76
2017-08-31T22:23:48.455Z,17.83
2017-08-31T22:24:48.490Z,17.68
2017-08-31T22:25:48.502Z,17.7
2017-08-31T22:26:48.521Z,17.6
2017-08-31T22:27:48.545Z,17.7
2017-08-31T22:28:48.576Z,17.71
2017-08-31T22:29:48.590Z,17.71
2017-08-31T22:30:48.614Z,17.74
2017-08-31T22:31:48.636Z,17.67
2017-08-31T22:32:48.665Z,17.7
2017-08-31T22:33:48.690Z,17.63
2017-08-31T22:34:48.716Z,17.36
2017-08-31T22:35:48.732Z,17.33
2017-08-31T22:36:48.807Z,17.39
2017-08-31T22:37:48.774Z,17.46
2017-08-31T22:38:48.797Z,17.49
2017-08-31T22:39:48.826Z,17.49
2017-08-31T22:40:49.148Z,17.49
2017-08-31T22:41:48.872Z,17.49
2017-08-31T22:42:48.888Z,17.49
2017-08-31T22:43:48.914Z,17.52
2017-08-31T22:44:48.931Z,17.41
2017-08-31T22:45:49.259Z,17.38
2017-08-31T22:46:48.977Z,17.46
2017-08-31T22:47:49.007Z,17.38
2017-08-31T22:48:49.035Z,17.38
2017-08-31T22:49:49.071Z,17.3
2017-08-31T22:50:49.079Z,17.29
2017-08-31T22:51:49.108Z,17.33
2017-08-31T22:52:49.112Z,17.33
2017-08-31T22:53:49.139Z,17.38
2017-08-31T22:54:49.159Z,17.31
2017-08-31T22:55:49.244Z,17.36
2017-08-31T22:56:49.212Z,17.27
2017-08-31T22:57:49.227Z,17.38
2017-08-31T22:58:49.258Z,17.33
2017-08-31T22:59:49.272Z,17.26
2017-08-31T23:00:49.609Z,17.39
2017-08-31T23:01:49.320Z,17.23
2017-08-31T23:02:49.342Z,17.31
2017-08-31T23:03:49.373Z,17.41
2017-08-31T23:04:49.387Z,17.41
2017-08-31T23:05:49.410Z,17.38
2017-08-31T23:06:49.483Z,17.31
2017-08-31T23:07:49.776Z,17.34
2017-08-31T23:08:49.486Z,17.44
2017-08-31T23:09:49.521Z,17.36
2017-08-31T23:10:49.528Z,17.45
2017-08-31T23:11:49.554Z,17.39
2017-08-31T23:12:49.574Z,17.51
2017-08-31T23:13:49.593Z,17.46
2017-08-31T23:14:49.613Z,17.52
2017-08-31T23:15:49.635Z,17.48
2017-08-31T23:16:49.659Z,17.45
2017-08-31T23:17:49.688Z,17.49
2017-08-31T23:18:49.719Z,17.51
2017-08-31T23:19:49.749Z,17.42
2017-08-31T23:20:49.756Z,17.54
2017-08-31T23:21:49.778Z,17.59
2017-08-31T23:22:49.856Z,17.46
2017-08-31T23:23:49.822Z,17.45
2017-08-31T23:24:49.849Z,17.41
2017-08-31T23:25:49.867Z,17.38
2017-08-31T23:26:49.886Z,17.38
2017-08-31T23:27:50.235Z,17.36
2017-08-31T23:28:49.934Z,17.36
2017-08-31T23:29:50.275Z,17.36
2017-08-31T23:30:49.978Z,17.42
2017-08-31T23:31:50.008Z,17.31
2017-08-31T23:32:50.024Z,17.23
2017-08-31T23:33:50.357Z,17.24
2017-08-31T23:34:50.073Z,17.22
2017-08-31T23:35:50.091Z,17.27
2017-08-31T23:36:50.171Z,17.33
2017-08-31T23:37:50.135Z,17.27
2017-08-31T23:38:50.162Z,17.16
2017-08-31T23:39:50.182Z,17.23
2017-08-31T23:40:50.202Z,17.2
2017-08-31T23:41:50.540Z,17.2
2017-08-31T23:42:50.256Z,17.23
2017-08-31T23:43:50.292Z,17.15
2017-08-31T23:44:50.298Z,17.12
2017-08-31T23:45:50.325Z,17.26
2017-08-31T23:46:50.345Z,17.04
2017-08-31T23:47:50.364Z,17.05
2017-08-31T23:48:50.389Z,17.06
2017-08-31T23:49:50.746Z,16.99
2017-08-31T23:50:50.434Z,16.84
2017-08-31T23:51:50.451Z,16.94
2017-08-31T23:52:50.475Z,16.91
2017-08-31T23:53:50.502Z,17.08
2017-08-31T23:54:50.528Z,17.09
2017-08-31T23:55:50.856Z,16.93
2017-08-31T23:56:50.567Z,16.89
2017-08-31T23:57:50.593Z,16.96
2017-08-31T23:58:50.624Z,17.06
2017-08-31T23:59:50.637Z,17.15
